Time;durP1;ratioP1;P1;durP2;ratioP2;P2;SDS_P1;SDS_P2;PMS_P1;PMS_P2;Temp;Humidity;BMP_temperature;BMP_pressure;BME280_temperature;BME280_humidity;BME280_pressure;Samples;Min_cycle;Max_cycle;Signal;HPM_P1;HPM_P2
2022/08/12 00:44:15;;;;;;;5.47;4.13;;;;;;;;;;5033641;28;20413;-73
2022/08/12 00:46:48;;;;;;;5.57;4.13;;;;;;;;;;5064675;28;20041;-73
2022/08/12 00:49:15;;;;;;;4.40;4.00;;;;;;;;;;5033241;28;20386;-73
2022/08/12 00:54:27;;;;;;;4.40;4.10;;;;;;;;;;5033337;28;20057;-73
2022/08/12 00:56:54;;;;;;;4.43;4.05;;;;;;;;;;5033454;28;20130;-73
2022/08/12 00:59:20;;;;;;;4.93;4.53;;;;;;;;;;5064278;28;20075;-73
2022/08/12 01:01:47;;;;;;;4.78;4.07;;;;;;;;;;5032512;28;20056;-75
2022/08/12 01:12:35;;;;;;;5.10;4.60;;;;;;;;;;5032856;28;20052;-76
2022/08/12 01:15:02;;;;;;;5.15;4.57;;;;;;;;;;5072009;28;20405;-73
2022/08/12 01:17:29;;;;;;;5.82;3.95;;;;;;;;;;5051506;28;20052;-73
2022/08/12 01:19:56;;;;;;;4.95;4.45;;;;;;;;;;5047138;28;20465;-73
2022/08/12 01:22:33;;;;;;;5.25;4.20;;;;;;;;;;5031162;28;20536;-73
2022/08/12 01:25:04;;;;;;;4.55;4.13;;;;;;;;;;5032442;28;20119;-73
2022/08/12 01:27:33;;;;;;;4.90;4.00;;;;;;;;;;5032249;28;20146;-72
2022/08/12 01:29:59;;;;;;;6.20;4.30;;;;;;;;;;5032627;28;20485;-73
2022/08/12 01:32:26;;;;;;;4.88;4.47;;;;;;;;;;5032682;28;20049;-73
2022/08/12 01:35:04;;;;;;;5.05;4.55;;;;;;;;;;5064487;28;20041;-72
2022/08/12 01:37:32;;;;;;;4.90;4.47;;;;;;;;;;5039111;28;20405;-73
2022/08/12 01:39:59;;;;;;;6.25;4.75;;;;;;;;;;5039155;28;20041;-73
2022/08/12 01:42:27;;;;;;;5.43;4.72;;;;;;;;;;5037148;28;20041;-73
2022/08/12 01:44:53;;;;;;;5.38;4.95;;;;;;;;;;5038598;28;20477;-72
2022/08/12 01:47:28;;;;;;;4.93;4.43;;;;;;;;;;5071349;28;20515;-73
2022/08/12 01:49:54;;;;;;;6.00;4.65;;;;;;;;;;5053163;28;20049;-73
2022/08/12 01:52:28;;;;;;;5.43;4.65;;;;;;;;;;5058086;28;20052;-72
2022/08/12 01:54:57;;;;;;;5.60;5.10;;;;;;;;;;5058361;28;20124;-73
2022/08/12 01:57:29;;;;;;;6.38;5.18;;;;;;;;;;5045529;28;20050;-73
2022/08/12 02:00:04;;;;;;;5.40;4.97;;;;;;;;;;5041591;28;20041;-73
2022/08/12 02:02:33;;;;;;;5.05;4.65;;;;;;;;;;5038407;28;20080;-73
2022/08/12 02:13:37;;;;;;;5.55;4.47;;;;;;;;;;5039217;28;20370;-73
2022/08/12 02:16:10;;;;;;;5.18;4.07;;;;;;;;;;5070483;28;20048;-73
2022/08/12 02:19:01;;;;;;;4.75;4.38;;;;;;;;;;5039105;28;20056;-73
2022/08/12 02:21:38;;;;;;;5.25;4.45;;;;;;;;;;5038617;28;20485;-73
2022/08/12 02:24:06;;;;;;;5.90;4.80;;;;;;;;;;5037922;28;20076;-72
2022/08/12 02:26:33;;;;;;;4.85;4.45;;;;;;;;;;5038811;28;20406;-73
2022/08/12 02:29:00;;;;;;;7.13;5.13;;;;;;;;;;5039052;28;20061;-72
2022/08/12 02:31:26;;;;;;;5.90;5.32;;;;;;;;;;5036826;28;20053;-73
2022/08/12 02:33:53;;;;;;;6.40;5.50;;;;;;;;;;5070362;28;20048;-73
2022/08/12 02:36:19;;;;;;;6.07;5.55;;;;;;;;;;5038783;28;20065;-73
2022/08/12 02:38:47;;;;;;;7.18;5.90;;;;;;;;;;5069981;28;20049;-73
2022/08/12 02:41:15;;;;;;;6.60;5.90;;;;;;;;;;5071037;28;20136;-73
2022/08/12 02:43:50;;;;;;;7.75;6.00;;;;;;;;;;5038409;28;20158;-73
2022/08/12 02:46:20;;;;;;;6.50;5.82;;;;;;;;;;5037831;28;20050;-73
2022/08/12 02:48:54;;;;;;;6.80;5.88;;;;;;;;;;5033377;28;20045;-73
2022/08/12 02:51:28;;;;;;;6.80;6.20;;;;;;;;;;5034829;28;20052;-73
2022/08/12 02:53:57;;;;;;;6.20;5.60;;;;;;;;;;5067456;28;20045;-73
2022/08/12 02:56:26;;;;;;;6.85;6.15;;;;;;;;;;5067678;28;20132;-73
2022/08/12 02:58:53;;;;;;;7.82;6.07;;;;;;;;;;5034368;28;20045;-73
2022/08/12 03:01:22;;;;;;;6.55;5.90;;;;;;;;;;5035429;28;20054;-73
2022/08/12 03:03:51;;;;;;;6.68;5.88;;;;;;;;;;5080926;28;20473;-73
2022/08/12 03:06:20;;;;;;;7.57;6.32;;;;;;;;;;5052502;28;20056;-73
2022/08/12 03:08:47;;;;;;;7.22;6.10;;;;;;;;;;5035488;28;20084;-73
2022/08/12 03:11:16;;;;;;;8.95;6.95;;;;;;;;;;5035081;28;20116;-74
2022/08/12 03:13:46;;;;;;;10.15;7.07;;;;;;;;;;5066079;28;20052;-73
2022/08/12 03:16:13;;;;;;;8.38;7.00;;;;;;;;;;5067331;28;20045;-74
2022/08/12 03:18:41;;;;;;;9.27;7.20;;;;;;;;;;5067211;28;20108;-74
2022/08/12 03:21:08;;;;;;;9.43;7.10;;;;;;;;;;5066165;28;20057;-73
2022/08/12 03:23:35;;;;;;;8.13;7.28;;;;;;;;;;5066880;28;20053;-73
2022/08/12 03:26:02;;;;;;;8.23;7.43;;;;;;;;;;5066736;28;20099;-74
2022/08/12 03:31:14;;;;;;;7.88;7.07;;;;;;;;;;5037964;28;20045;-73
2022/08/12 03:33:43;;;;;;;8.00;6.72;;;;;;;;;;5053651;28;20048;-73
2022/08/12 03:36:10;;;;;;;11.40;7.15;;;;;;;;;;5054615;28;20484;-74
2022/08/12 03:38:39;;;;;;;8.50;7.38;;;;;;;;;;5054657;28;20049;-74
2022/08/12 04:00:37;;;;;;;8.30;7.15;;;;;;;;;;5037050;28;20064;-73
2022/08/12 04:03:50;;;;;;;8.65;6.90;;;;;;;;;;5052124;28;20489;-73
2022/08/12 04:05:50;;;;;;;7.28;6.25;;;;;;;;;;5052356;28;20045;-74
2022/08/12 04:08:17;;;;;;;7.07;6.22;;;;;;;;;;5050183;28;20129;-73
2022/08/12 04:13:28;;;;;;;7.65;6.13;;;;;;;;;;5032939;28;20053;-74
2022/08/12 04:15:54;;;;;;;7.07;6.18;;;;;;;;;;5033086;28;20046;-73
2022/08/12 04:18:22;;;;;;;7.20;5.95;;;;;;;;;;5045006;28;20048;-73
2022/08/12 04:20:48;;;;;;;7.20;6.35;;;;;;;;;;5052121;28;20049;-73
2022/08/12 04:23:15;;;;;;;8.60;6.50;;;;;;;;;;5052517;28;20066;-73
2022/08/12 04:25:41;;;;;;;8.05;5.82;;;;;;;;;;5050616;28;20048;-73
2022/08/12 04:28:10;;;;;;;7.28;6.10;;;;;;;;;;5032471;28;20408;-73
2022/08/12 04:30:36;;;;;;;7.70;6.05;;;;;;;;;;5033126;28;20382;-73
2022/08/12 04:33:03;;;;;;;9.43;6.03;;;;;;;;;;5033468;28;20049;-73
2022/08/12 04:35:30;;;;;;;6.30;5.70;;;;;;;;;;5033333;28;20531;-73
2022/08/12 04:37:57;;;;;;;7.55;5.85;;;;;;;;;;5064324;28;20049;-73
2022/08/12 04:40:24;;;;;;;6.50;5.47;;;;;;;;;;5041703;28;20033;-73
2022/08/12 04:42:50;;;;;;;7.43;5.80;;;;;;;;;;5052060;28;20404;-73
2022/08/12 04:45:17;;;;;;;6.03;5.43;;;;;;;;;;5052830;28;20045;-73
2022/08/12 04:47:43;;;;;;;6.57;5.22;;;;;;;;;;5051730;28;20072;-73
2022/08/12 04:50:10;;;;;;;7.43;5.57;;;;;;;;;;5040767;28;20124;-73
2022/08/12 04:52:36;;;;;;;7.78;5.22;;;;;;;;;;5031282;28;20054;-73
2022/08/12 04:55:03;;;;;;;7.60;5.38;;;;;;;;;;5032884;28;20049;-73
2022/08/12 04:57:29;;;;;;;7.15;5.30;;;;;;;;;;5033248;28;20033;-73
2022/08/12 04:59:55;;;;;;;7.95;5.25;;;;;;;;;;5032657;28;20071;-73
2022/08/12 05:02:21;;;;;;;6.93;5.13;;;;;;;;;;5064673;28;20053;-73
2022/08/12 05:04:48;;;;;;;8.00;5.18;;;;;;;;;;5032149;28;20038;-74
2022/08/12 05:07:14;;;;;;;6.63;5.25;;;;;;;;;;5032749;28;20128;-73
2022/08/12 05:09:40;;;;;;;7.95;5.57;;;;;;;;;;5064662;28;20196;-73
2022/08/12 05:12:06;;;;;;;8.18;5.32;;;;;;;;;;5031940;28;20401;-73
2022/08/12 05:14:32;;;;;;;6.05;5.47;;;;;;;;;;5032783;28;20042;-73
2022/08/12 05:16:59;;;;;;;6.65;4.85;;;;;;;;;;5036920;28;20118;-74
2022/08/12 05:19:25;;;;;;;6.97;5.43;;;;;;;;;;5050582;28;20053;-73
2022/08/12 05:21:51;;;;;;;6.68;5.00;;;;;;;;;;5048479;28;20100;-73
2022/08/12 05:24:17;;;;;;;5.65;5.10;;;;;;;;;;5032771;28;20068;-73
2022/08/12 05:26:43;;;;;;;8.15;5.10;;;;;;;;;;5031973;28;20405;-73
2022/08/12 05:29:11;;;;;;;5.90;5.40;;;;;;;;;;5032801;28;20045;-73
2022/08/12 05:31:37;;;;;;;6.10;5.10;;;;;;;;;;5065119;28;20056;-73
2022/08/12 05:34:04;;;;;;;9.15;5.43;;;;;;;;;;5064071;28;20064;-74
2022/08/12 05:36:30;;;;;;;7.30;5.20;;;;;;;;;;5044271;28;20053;-73
2022/08/12 05:38:56;;;;;;;7.90;4.72;;;;;;;;;;5051178;28;20053;-74
2022/08/12 05:41:30;;;;;;;6.30;5.25;;;;;;;;;;5050716;28;20493;-73
2022/08/12 05:43:58;;;;;;;8.73;5.38;;;;;;;;;;5046365;28;20033;-73
2022/08/12 05:46:25;;;;;;;7.53;4.70;;;;;;;;;;5031315;28;20053;-73
2022/08/12 05:48:55;;;;;;;4.72;4.32;;;;;;;;;;5030246;28;20073;-73
2022/08/12 05:51:23;;;;;;;6.15;4.85;;;;;;;;;;5037248;28;20630;-73
2022/08/12 05:53:50;;;;;;;5.80;4.57;;;;;;;;;;5052682;28;20045;-73
2022/08/12 05:56:27;;;;;;;8.13;5.97;;;;;;;;;;5050655;28;20136;-73
2022/08/12 05:58:54;;;;;;;6.65;4.80;;;;;;;;;;5051361;28;20397;-73
2022/08/12 06:01:21;;;;;;;4.93;4.47;;;;;;;;;;5045433;28;20045;-74
2022/08/12 06:03:47;;;;;;;5.10;4.43;;;;;;;;;;5032456;28;20102;-74
2022/08/12 06:06:15;;;;;;;5.18;4.10;;;;;;;;;;5032378;28;20033;-74
2022/08/12 06:08:43;;;;;;;6.20;4.53;;;;;;;;;;5063943;28;20049;-73
2022/08/12 06:11:09;;;;;;;4.70;4.20;;;;;;;;;;5032216;28;20091;-74
2022/08/12 06:13:38;;;;;;;5.32;4.35;;;;;;;;;;5032241;28;20045;-74
2022/08/12 06:16:08;;;;;;;6.82;4.47;;;;;;;;;;5063369;28;20553;-74
2022/08/12 06:18:36;;;;;;;8.18;4.40;;;;;;;;;;5032919;28;20041;-73
2022/08/12 06:21:02;;;;;;;6.35;3.92;;;;;;;;;;5032327;28;20042;-74
2022/08/12 06:23:29;;;;;;;5.47;4.30;;;;;;;;;;5065213;28;20064;-74
2022/08/12 06:25:55;;;;;;;6.57;3.80;;;;;;;;;;5067878;28;20049;-74
2022/08/12 06:28:22;;;;;;;4.88;3.53;;;;;;;;;;5067827;28;20052;-74
2022/08/12 06:30:49;;;;;;;6.35;4.07;;;;;;;;;;5035320;28;20144;-74
2022/08/12 06:33:15;;;;;;;6.93;3.83;;;;;;;;;;5067960;28;20607;-74
2022/08/12 06:35:41;;;;;;;5.57;3.75;;;;;;;;;;5035589;28;20049;-74
2022/08/12 06:38:33;;;;;;;5.57;3.47;;;;;;;;;;5034887;28;20550;-74
2022/08/12 06:43:47;;;;;;;4.68;3.22;;;;;;;;;;5079127;28;20060;-74
2022/08/12 06:46:13;;;;;;;7.07;3.50;;;;;;;;;;5055517;28;20420;-74
2022/08/12 06:48:41;;;;;;;6.50;3.70;;;;;;;;;;5054199;28;20080;-74
2022/08/12 06:51:08;;;;;;;4.03;3.42;;;;;;;;;;5041179;28;20452;-74
2022/08/12 06:53:34;;;;;;;5.47;3.80;;;;;;;;;;5034526;28;20386;-74
2022/08/12 06:56:01;;;;;;;6.40;3.40;;;;;;;;;;5035164;28;20512;-74
2022/08/12 06:58:29;;;;;;;4.35;3.53;;;;;;;;;;5034863;28;20456;-74
2022/08/12 07:00:56;;;;;;;7.95;3.10;;;;;;;;;;5067234;28;20473;-74
2022/08/12 07:03:29;;;;;;;3.95;3.20;;;;;;;;;;5035272;28;20045;-74
2022/08/12 07:05:55;;;;;;;;;;;;;;;;;;5034722;28;20056;-74
2022/08/12 07:08:22;;;;;;;5.05;2.80;;;;;;;;;;5067028;28;19921;-74
2022/08/12 07:10:56;;;;;;;5.32;2.90;;;;;;;;;;5067030;28;20049;-74
2022/08/12 07:13:23;;;;;;;3.50;3.20;;;;;;;;;;5034527;28;20049;-74
2022/08/12 07:15:54;;;;;;;4.18;2.90;;;;;;;;;;5047223;28;20120;-75
2022/08/12 07:18:20;;;;;;;4.47;2.90;;;;;;;;;;5053799;28;20144;-75
2022/08/12 07:20:47;;;;;;;4.05;3.00;;;;;;;;;;5046057;28;20045;-74
2022/08/12 07:23:14;;;;;;;4.47;2.90;;;;;;;;;;5033150;28;20148;-74
2022/08/12 07:25:40;;;;;;;4.80;2.92;;;;;;;;;;5034346;28;20053;-74
2022/08/12 07:28:17;;;;;;;5.10;3.15;;;;;;;;;;5033384;28;20539;-75
2022/08/12 07:30:44;;;;;;;3.22;2.80;;;;;;;;;;5034805;28;20052;-74
2022/08/12 07:33:11;;;;;;;2.97;2.78;;;;;;;;;;5065424;28;20492;-74
2022/08/12 07:35:44;;;;;;;3.90;3.00;;;;;;;;;;5066926;28;20054;-74
2022/08/12 07:38:30;;;;;;;3.45;2.72;;;;;;;;;;5067042;28;20561;-74
2022/08/12 07:41:09;;;;;;;3.33;2.95;;;;;;;;;;5073613;28;20079;-74
2022/08/12 07:43:38;;;;;;;3.85;2.97;;;;;;;;;;5054427;28;20098;-74
2022/08/12 07:46:05;;;;;;;6.57;2.78;;;;;;;;;;5054671;28;20120;-74
2022/08/12 07:48:42;;;;;;;4.85;2.50;;;;;;;;;;5052639;28;20061;-74
2022/08/12 07:51:08;;;;;;;2.50;2.25;;;;;;;;;;5041518;28;20049;-74
2022/08/12 07:53:35;;;;;;;5.22;2.83;;;;;;;;;;5033220;28;20493;-74
2022/08/12 07:56:02;;;;;;;3.20;2.90;;;;;;;;;;5033359;28;20124;-74
2022/08/12 07:58:28;;;;;;;3.53;2.80;;;;;;;;;;5034197;28;20056;-74
2022/08/12 08:00:56;;;;;;;2.95;2.50;;;;;;;;;;5033716;28;20084;-74
2022/08/12 08:03:24;;;;;;;3.25;2.30;;;;;;;;;;5039208;28;20137;-74
2022/08/12 08:05:50;;;;;;;3.40;2.53;;;;;;;;;;5033873;28;20049;-74
2022/08/12 08:08:18;;;;;;;4.35;3.40;;;;;;;;;;5031564;28;20042;-74
2022/08/12 08:10:45;;;;;;;6.63;2.70;;;;;;;;;;5034387;28;20048;-74
2022/08/12 08:13:11;;;;;;;2.90;2.67;;;;;;;;;;5034103;28;20045;-74
2022/08/12 08:15:38;;;;;;;4.03;2.92;;;;;;;;;;5033041;28;20045;-74
2022/08/12 08:18:05;;;;;;;3.05;2.78;;;;;;;;;;5065977;28;20411;-74
2022/08/12 08:20:33;;;;;;;7.88;2.80;;;;;;;;;;5034071;28;20042;-74
2022/08/12 08:23:06;;;;;;;3.25;2.67;;;;;;;;;;5064523;28;20478;-74
2022/08/12 08:25:32;;;;;;;3.00;2.67;;;;;;;;;;5065509;28;20132;-74
2022/08/12 08:28:03;;;;;;;2.90;2.70;;;;;;;;;;5033463;28;20052;-75
2022/08/12 08:30:30;;;;;;;4.15;2.70;;;;;;;;;;5064873;28;20053;-74
2022/08/12 08:32:56;;;;;;;3.10;2.80;;;;;;;;;;5065558;28;20443;-74
2022/08/12 08:35:24;;;;;;;3.28;2.72;;;;;;;;;;5033405;28;20045;-74
2022/08/12 08:37:50;;;;;;;4.47;2.70;;;;;;;;;;5032781;28;20045;-74
2022/08/12 08:43:01;;;;;;;3.38;2.90;;;;;;;;;;5032752;28;20049;-74
2022/08/12 08:45:27;;;;;;;3.15;2.85;;;;;;;;;;5032485;28;20096;-74
2022/08/12 08:47:53;;;;;;;2.60;2.40;;;;;;;;;;5033245;28;20041;-74
2022/08/12 08:50:20;;;;;;;3.15;2.83;;;;;;;;;;5032351;28;20049;-73
2022/08/12 08:52:47;;;;;;;4.40;2.67;;;;;;;;;;5065268;28;20053;-75
2022/08/12 08:55:15;;;;;;;3.50;2.63;;;;;;;;;;5065055;28;20053;-75
2022/08/12 08:57:48;;;;;;;4.63;2.80;;;;;;;;;;5031421;28;20053;-75
2022/08/12 09:00:15;;;;;;;6.82;2.72;;;;;;;;;;5032164;28;20054;-75
2022/08/12 09:02:41;;;;;;;8.50;2.88;;;;;;;;;;5031702;28;20439;-75
2022/08/12 09:05:07;;;;;;;4.30;2.50;;;;;;;;;;5031056;28;20128;-75
2022/08/12 09:07:46;;;;;;;2.75;2.33;;;;;;;;;;5032727;28;20485;-75
2022/08/12 09:10:15;;;;;;;3.88;2.38;;;;;;;;;;5033182;28;20367;-75
2022/08/12 09:15:26;;;;;;;2.50;2.30;;;;;;;;;;5064897;28;20382;-75
2022/08/12 09:17:56;;;;;;;5.28;2.70;;;;;;;;;;5032481;28;20052;-75
2022/08/12 09:20:29;;;;;;;3.38;2.63;;;;;;;;;;5065109;28;20060;-75
2022/08/12 09:22:56;;;;;;;3.30;2.47;;;;;;;;;;5064791;28;20045;-75
2022/08/12 09:25:25;;;;;;;4.75;2.65;;;;;;;;;;5063963;28;20379;-75
2022/08/12 09:27:54;;;;;;;6.45;2.40;;;;;;;;;;5032835;28;20064;-75
2022/08/12 09:30:21;;;;;;;4.72;2.58;;;;;;;;;;5064853;28;20080;-75
2022/08/12 09:32:52;;;;;;;4.65;2.38;;;;;;;;;;5064300;28;20045;-75
2022/08/12 09:35:19;;;;;;;5.45;2.50;;;;;;;;;;5032757;28;20069;-75
2022/08/12 09:37:46;;;;;;;7.55;2.80;;;;;;;;;;5032591;28;20046;-75
2022/08/12 09:40:13;;;;;;;3.38;2.50;;;;;;;;;;5063987;28;20057;-75
2022/08/12 09:45:23;;;;;;;3.50;2.40;;;;;;;;;;5065141;28;20496;-75
2022/08/12 09:47:50;;;;;;;5.00;2.70;;;;;;;;;;5031367;28;20045;-75
2022/08/12 09:50:17;;;;;;;2.75;2.55;;;;;;;;;;5064849;28;20053;-75
2022/08/12 09:52:44;;;;;;;2.50;2.30;;;;;;;;;;5032365;28;20049;-75
2022/08/12 09:55:10;;;;;;;4.28;2.70;;;;;;;;;;5063876;28;20049;-75
2022/08/12 09:57:36;;;;;;;3.20;2.50;;;;;;;;;;5067253;28;20053;-75
2022/08/12 10:00:18;;;;;;;3.38;2.33;;;;;;;;;;5036337;28;20052;-75
2022/08/12 10:02:57;;;;;;;4.25;2.55;;;;;;;;;;5035093;28;20562;-75
2022/08/12 10:05:23;;;;;;;2.70;2.47;;;;;;;;;;5054743;28;20048;-75
2022/08/12 10:07:49;;;;;;;2.92;2.45;;;;;;;;;;5055266;28;20044;-75
2022/08/12 10:10:15;;;;;;;4.82;2.22;;;;;;;;;;5036701;28;20107;-75
2022/08/12 10:15:28;;;;;;;2.33;2.20;;;;;;;;;;5034104;28;20420;-75
2022/08/12 10:17:54;;;;;;;5.57;2.28;;;;;;;;;;5039976;28;20048;-75
2022/08/12 10:20:20;;;;;;;3.53;2.30;;;;;;;;;;5056371;28;20045;-75
2022/08/12 10:23:00;;;;;;;4.00;2.30;;;;;;;;;;5054704;28;20455;-75
2022/08/12 10:30:56;;;;;;;2.97;2.33;;;;;;;;;;5034828;28;20053;-75
2022/08/12 10:33:23;;;;;;;2.78;2.28;;;;;;;;;;5042495;28;20045;-75
2022/08/12 10:35:49;;;;;;;5.00;2.50;;;;;;;;;;5054061;28;20138;-75
2022/08/12 10:38:16;;;;;;;4.68;2.42;;;;;;;;;;5054052;28;20467;-75
2022/08/12 10:43:43;;;;;;;3.10;2.30;;;;;;;;;;5033689;28;20557;-75
2022/08/12 10:46:15;;;;;;;5.38;2.35;;;;;;;;;;5034360;28;20057;-75
2022/08/12 10:48:41;;;;;;;2.58;2.38;;;;;;;;;;5034171;28;20152;-75
2022/08/12 10:51:07;;;;;;;2.50;2.30;;;;;;;;;;5035083;28;20128;-75
2022/08/12 10:53:33;;;;;;;4.75;2.40;;;;;;;;;;5067695;28;20510;-75
2022/08/12 10:55:59;;;;;;;2.40;2.30;;;;;;;;;;5067605;28;20050;-75
2022/08/12 10:58:25;;;;;;;3.30;2.50;;;;;;;;;;5034892;28;20242;-75
2022/08/12 11:00:51;;;;;;;3.58;2.50;;;;;;;;;;5067466;28;20504;-75
2022/08/12 11:03:17;;;;;;;3.67;2.30;;;;;;;;;;5066908;28;20042;-75
2022/08/12 11:05:43;;;;;;;5.60;2.50;;;;;;;;;;5066418;28;20049;-75
2022/08/12 11:08:11;;;;;;;5.68;2.03;;;;;;;;;;5065888;28;20049;-76
2022/08/12 11:10:37;;;;;;;4.32;2.30;;;;;;;;;;5034598;28;20045;-75
2022/08/12 11:13:03;;;;;;;3.22;2.10;;;;;;;;;;5066892;28;20071;-76
2022/08/12 11:15:30;;;;;;;2.35;2.20;;;;;;;;;;5066864;28;20042;-76
2022/08/12 11:17:56;;;;;;;2.70;2.20;;;;;;;;;;5033962;28;20128;-75
2022/08/12 11:20:23;;;;;;;3.60;2.30;;;;;;;;;;5034918;28;20068;-75
2022/08/12 11:22:56;;;;;;;4.38;2.15;;;;;;;;;;5067010;28;20084;-75
2022/08/12 11:25:22;;;;;;;5.53;2.25;;;;;;;;;;5034434;28;20136;-75
2022/08/12 11:27:48;;;;;;;5.10;2.20;;;;;;;;;;5066469;28;20136;-75
2022/08/12 11:30:14;;;;;;;3.60;2.25;;;;;;;;;;5066781;28;20041;-75
2022/08/12 11:32:40;;;;;;;3.42;2.25;;;;;;;;;;5034202;28;20483;-76
2022/08/12 11:35:07;;;;;;;4.22;2.55;;;;;;;;;;5035063;28;20073;-75
2022/08/12 11:37:36;;;;;;;5.97;2.75;;;;;;;;;;5051430;28;20464;-76
2022/08/12 11:40:02;;;;;;;3.25;2.15;;;;;;;;;;5052301;28;20169;-76
2022/08/12 11:42:28;;;;;;;7.00;2.55;;;;;;;;;;5049122;28;20103;-76
2022/08/12 11:44:54;;;;;;;6.93;2.22;;;;;;;;;;5034521;28;20059;-76
2022/08/12 11:47:20;;;;;;;3.70;2.22;;;;;;;;;;5032491;28;20068;-76
2022/08/12 11:49:46;;;;;;;2.03;1.92;;;;;;;;;;5034320;28;20493;-76
2022/08/12 11:52:12;;;;;;;2.83;2.10;;;;;;;;;;5034159;28;20049;-76
2022/08/12 11:54:38;;;;;;;3.70;2.30;;;;;;;;;;5033666;28;20397;-76
2022/08/12 11:57:04;;;;;;;2.53;2.35;;;;;;;;;;5034460;28;20104;-76
2022/08/12 11:59:31;;;;;;;2.75;2.17;;;;;;;;;;5065912;28;20108;-76
2022/08/12 12:01:57;;;;;;;6.47;2.58;;;;;;;;;;5033563;28;20072;-76
2022/08/12 12:04:23;;;;;;;2.78;2.00;;;;;;;;;;5071163;28;20084;-76
2022/08/12 12:06:49;;;;;;;3.55;2.38;;;;;;;;;;5033063;28;20048;-76
2022/08/12 12:09:15;;;;;;;3.05;2.20;;;;;;;;;;5032972;28;20069;-76
2022/08/12 12:11:42;;;;;;;4.60;2.13;;;;;;;;;;5032359;28;20045;-77
2022/08/12 12:14:08;;;;;;;4.60;2.20;;;;;;;;;;5031744;28;20460;-76
2022/08/12 12:16:35;;;;;;;6.63;2.20;;;;;;;;;;5065624;28;20096;-76
2022/08/12 12:19:01;;;;;;;3.38;2.47;;;;;;;;;;5072507;28;20049;-76
2022/08/12 12:21:27;;;;;;;3.15;2.00;;;;;;;;;;5051580;28;20488;-76
2022/08/12 12:23:53;;;;;;;2.70;1.92;;;;;;;;;;5037678;28;20057;-76
2022/08/12 12:26:19;;;;;;;4.70;2.33;;;;;;;;;;5033706;28;20092;-76
2022/08/12 12:28:45;;;;;;;2.42;1.90;;;;;;;;;;5032826;28;20089;-76
2022/08/12 12:31:11;;;;;;;2.42;2.08;;;;;;;;;;5052328;28;20044;-76
2022/08/12 12:33:39;;;;;;;4.05;2.15;;;;;;;;;;5051935;28;20055;-76
2022/08/12 12:36:06;;;;;;;4.82;2.17;;;;;;;;;;5037029;28;20049;-76
2022/08/12 12:38:32;;;;;;;2.13;2.00;;;;;;;;;;5032295;28;20117;-76
2022/08/12 12:40:58;;;;;;;2.85;2.17;;;;;;;;;;5033450;28;20148;-76
2022/08/12 12:43:24;;;;;;;2.63;2.10;;;;;;;;;;5032327;28;20099;-76
2022/08/12 12:45:50;;;;;;;3.90;2.15;;;;;;;;;;5031625;28;20036;-76
2022/08/12 12:48:17;;;;;;;4.63;2.20;;;;;;;;;;5033527;28;20092;-77
2022/08/12 12:50:44;;;;;;;2.17;2.05;;;;;;;;;;5032851;28;20367;-77
2022/08/12 12:53:14;;;;;;;3.90;1.92;;;;;;;;;;5065122;28;20065;-77
2022/08/12 12:55:40;;;;;;;2.47;2.08;;;;;;;;;;5033143;28;20050;-77
2022/08/12 12:58:13;;;;;;;2.97;2.17;;;;;;;;;;5032089;28;20047;-77
2022/08/12 13:00:43;;;;;;;4.10;2.25;;;;;;;;;;5032073;28;20049;-77
2022/08/12 13:03:11;;;;;;;3.15;2.20;;;;;;;;;;5032577;28;20172;-77
2022/08/12 13:05:37;;;;;;;4.05;2.20;;;;;;;;;;5065015;28;20520;-77
2022/08/12 13:08:17;;;;;;;2.20;2.00;;;;;;;;;;5064911;28;20049;-77
2022/08/12 13:10:43;;;;;;;2.53;2.20;;;;;;;;;;5032248;28;20045;-75
2022/08/12 13:13:09;;;;;;;2.88;2.20;;;;;;;;;;5032750;28;20053;-75
2022/08/12 13:15:36;;;;;;;3.22;2.20;;;;;;;;;;5046417;28;20102;-75
2022/08/12 13:18:06;;;;;;;4.05;2.17;;;;;;;;;;5044287;28;20053;-75
2022/08/12 13:20:32;;;;;;;4.60;2.28;;;;;;;;;;5031901;28;20081;-76
2022/08/12 13:22:58;;;;;;;4.40;2.22;;;;;;;;;;5032036;28;20087;-75
2022/08/12 13:25:25;;;;;;;2.78;2.35;;;;;;;;;;5031866;28;20125;-76
2022/08/12 13:27:51;;;;;;;4.65;2.28;;;;;;;;;;5064995;28;20059;-76
2022/08/12 13:30:21;;;;;;;2.55;2.35;;;;;;;;;;5064925;28;20128;-76
2022/08/12 13:32:57;;;;;;;2.30;2.10;;;;;;;;;;5063776;28;20045;-75
2022/08/12 13:35:24;;;;;;;3.53;2.03;;;;;;;;;;5064560;28;20117;-75
2022/08/12 13:37:52;;;;;;;4.93;2.22;;;;;;;;;;5032630;28;20084;-75
2022/08/12 13:40:27;;;;;;;3.28;2.22;;;;;;;;;;5031705;28;20045;-76
2022/08/12 13:42:57;;;;;;;2.88;2.33;;;;;;;;;;5032427;28;20076;-76
2022/08/12 13:45:27;;;;;;;2.35;2.15;;;;;;;;;;5072626;28;20045;-76
2022/08/12 13:47:57;;;;;;;3.92;2.25;;;;;;;;;;5051196;28;20041;-76
2022/08/12 13:50:31;;;;;;;2.85;2.03;;;;;;;;;;5051404;28;20049;-76
2022/08/12 13:52:58;;;;;;;4.93;2.38;;;;;;;;;;5051910;28;20041;-75
2022/08/12 13:55:24;;;;;;;3.28;2.00;;;;;;;;;;5035375;28;20494;-78
2022/08/12 13:57:51;;;;;;;4.72;2.13;;;;;;;;;;5031166;28;20053;-77
2022/08/12 14:00:18;;;;;;;2.70;2.10;;;;;;;;;;5030393;28;20046;-78
2022/08/12 14:02:43;;;;;;;6.85;2.40;;;;;;;;;;5030960;28;20184;-78
2022/08/12 14:05:10;;;;;;;6.00;2.30;;;;;;;;;;5034486;28;20124;-78
2022/08/12 14:07:55;;;;;;;3.90;2.28;;;;;;;;;;5031297;28;20049;-78
2022/08/12 14:10:42;;;;;;;3.70;2.30;;;;;;;;;;5031929;28;20046;-78
2022/08/12 14:13:15;;;;;;;2.42;2.10;;;;;;;;;;5032466;28;20108;-77
2022/08/12 14:15:49;;;;;;;2.35;2.00;;;;;;;;;;5063800;28;20045;-78
2022/08/12 14:18:25;;;;;;;3.78;2.30;;;;;;;;;;5064420;28;20126;-78
2022/08/12 14:21:00;;;;;;;4.50;2.20;;;;;;;;;;5031402;28;20106;-78
2022/08/12 14:23:27;;;;;;;4.18;2.00;;;;;;;;;;5063846;28;20502;-78
2022/08/12 14:25:54;;;;;;;3.65;1.98;;;;;;;;;;5030765;28;20569;-78
2022/08/12 14:28:22;;;;;;;4.80;2.20;;;;;;;;;;5031274;28;20102;-78
2022/08/12 14:31:01;;;;;;;2.58;2.08;;;;;;;;;;5031849;28;20130;-78
2022/08/12 14:33:32;;;;;;;3.92;2.20;;;;;;;;;;5030871;28;20053;-78
2022/08/12 14:35:59;;;;;;;3.63;1.90;;;;;;;;;;5031221;28;20041;-78
2022/08/12 14:38:29;;;;;;;4.47;2.00;;;;;;;;;;5064069;28;20053;-76
2022/08/12 14:41:00;;;;;;;2.50;2.20;;;;;;;;;;5064225;28;20509;-76
2022/08/12 14:43:28;;;;;;;2.63;1.88;;;;;;;;;;5063663;28;20501;-76
2022/08/12 14:45:55;;;;;;;2.15;1.77;;;;;;;;;;5035630;28;20081;-76
2022/08/12 14:48:21;;;;;;;3.00;1.70;;;;;;;;;;5067517;28;20195;-76
2022/08/12 14:50:49;;;;;;;1.63;1.52;;;;;;;;;;5066920;28;20052;-77
2022/08/12 14:53:16;;;;;;;6.07;1.92;;;;;;;;;;5067699;28;20041;-77
2022/08/12 14:55:44;;;;;;;3.35;1.52;;;;;;;;;;5066951;28;20452;-76
2022/08/12 14:58:10;;;;;;;2.08;1.70;;;;;;;;;;5067138;28;20053;-77
2022/08/12 15:03:26;;;;;;;2.50;1.40;;;;;;;;;;5034338;28;20049;-77
2022/08/12 15:05:54;;;;;;;4.75;1.63;;;;;;;;;;5082921;28;20056;-77
2022/08/12 15:08:23;;;;;;;4.03;1.83;;;;;;;;;;5055088;28;20382;-77
2022/08/12 15:10:49;;;;;;;5.20;1.33;;;;;;;;;;5052960;28;20049;-77
2022/08/12 15:13:16;;;;;;;3.67;1.08;;;;;;;;;;5051880;28;20049;-77
2022/08/12 15:15:42;;;;;;;3.63;1.40;;;;;;;;;;5034413;28;20381;-77
2022/08/12 15:18:09;;;;;;;2.05;1.20;;;;;;;;;;5032666;28;20564;-77
2022/08/12 15:20:36;;;;;;;1.75;1.23;;;;;;;;;;5055020;28;20049;-77
2022/08/12 15:23:02;;;;;;;4.82;1.30;;;;;;;;;;5045684;28;20914;-77
2022/08/12 15:25:29;;;;;;;2.13;1.08;;;;;;;;;;5034761;28;20056;-77
2022/08/12 15:28:01;;;;;;;2.05;1.15;;;;;;;;;;5034634;28;20045;-77
2022/08/12 15:30:28;;;;;;;8.23;1.33;;;;;;;;;;5033609;28;20053;-77
2022/08/12 15:32:57;;;;;;;5.85;1.40;;;;;;;;;;5033635;28;20504;-77
2022/08/12 15:35:26;;;;;;;3.67;1.38;;;;;;;;;;5066686;28;20041;-77
2022/08/12 15:38:03;;;;;;;2.35;1.30;;;;;;;;;;5066239;28;20053;-77
2022/08/12 15:40:29;;;;;;;5.65;1.30;;;;;;;;;;5051387;28;20443;-77
2022/08/12 15:42:56;;;;;;;4.60;1.27;;;;;;;;;;5053042;28;20056;-77
2022/08/12 15:45:22;;;;;;;2.42;1.40;;;;;;;;;;5037367;28;20076;-77
2022/08/12 15:47:52;;;;;;;2.72;1.10;;;;;;;;;;5034397;28;20053;-77
2022/08/12 15:50:28;;;;;;;3.70;1.50;;;;;;;;;;5034668;28;20489;-77
2022/08/12 15:52:55;;;;;;;2.78;1.23;;;;;;;;;;5065977;28;20463;-77
2022/08/12 15:55:23;;;;;;;1.35;0.77;;;;;;;;;;5070228;28;20424;-77
2022/08/12 15:57:52;;;;;;;2.05;0.85;;;;;;;;;;5054326;28;20064;-77
2022/08/12 16:00:23;;;;;;;3.03;1.10;;;;;;;;;;5053526;28;20045;-77
2022/08/12 16:02:49;;;;;;;3.10;1.13;;;;;;;;;;5039020;28;20049;-77
2022/08/12 16:05:17;;;;;;;4.88;1.08;;;;;;;;;;5032990;28;20483;-77
2022/08/12 16:07:43;;;;;;;1.20;1.10;;;;;;;;;;5046532;28;20523;-77
2022/08/12 16:10:10;;;;;;;1.88;0.90;;;;;;;;;;5052629;28;20095;-77
2022/08/12 16:12:44;;;;;;;1.63;1.20;;;;;;;;;;5041580;28;20055;-77
2022/08/12 16:15:11;;;;;;;1.55;1.10;;;;;;;;;;5032940;28;20049;-77
2022/08/12 16:17:38;;;;;;;1.00;0.90;;;;;;;;;;5033732;28;20127;-77
2022/08/12 16:20:10;;;;;;;2.03;1.10;;;;;;;;;;5033028;28;20401;-77
2022/08/12 16:22:36;;;;;;;1.98;1.10;;;;;;;;;;5065696;28;20057;-76
2022/08/12 16:25:05;;;;;;;6.22;1.70;;;;;;;;;;5032059;28;20080;-77
2022/08/12 16:27:31;;;;;;;3.80;1.20;;;;;;;;;;5068292;28;20055;-77
2022/08/12 16:29:58;;;;;;;2.05;1.20;;;;;;;;;;5052184;28;20040;-77
2022/08/12 16:32:27;;;;;;;1.98;1.10;;;;;;;;;;5053593;28;20094;-77
2022/08/12 16:34:54;;;;;;;2.60;1.30;;;;;;;;;;5037027;28;20037;-77
2022/08/12 16:37:20;;;;;;;5.28;1.30;;;;;;;;;;5033738;28;20140;-77
2022/08/12 16:39:47;;;;;;;2.10;1.10;;;;;;;;;;5033235;28;20120;-76
2022/08/12 16:42:14;;;;;;;3.58;1.00;;;;;;;;;;5032588;28;20052;-77